11 km et Semi BAZAS-LANGON - 06/03/2016

Course Benjamins

33 participants classés


Retour au Sommaire - Signaler une erreur - Faire défiler





Pl Do. Nom - Surname Prénom - Name S-Cat /cat Club - Team TEMPS - Time Km/h /sx
1 1637 BOUZAKRI Mehdi MBE 1 SLA 00:10:30 0 1
2 1645 GAND Mathéo MBE 2 SLA 00:10:55 0 2
3 1660 JOLLES Antony MBE 3 """" 00:11:06 0 3
4 1661 GUILLEBAUD Amiel MBE 4 """" 00:11:23 0 4
5 1662 COUALLIER Oscar MBE 5 """" 00:11:33 0 5
6 1643 MILOU Aurelian MBE 6 DECINES 00:11:34 0 6
7 1669 GROSPERRIN Téva MBE 7   00:11:38 0 7
8 1659 COURREGES Matéo MBE 8 """" 00:11:51 0 8
9 1670 AIRAULT Mathieu MBE 9   00:12:05 0 9
10 1658 RASSIS Eliot MBE 10 """" 00:12:09 0 10
11 1657 CAZENAVE Quentin MBE 11 """" 00:12:16 0 11
12 1666 BELENUS Augustin MBE 12 FOOT BARSAC 00:12:20 0 12
13 1663 VAILLANT Lucas MBE 13 """" 00:12:30 0 13
14 1652 COURREGES Yanis MBE 14 """" 00:12:34 0 14
15 1672 LANUSSE REMI MBE 15   00:13:03 0 15
16 1656 MERVEILLEAU Arthur MBE 16 """" 00:13:07 0 16
17 1648 BAHABAN Maxence MBE 17 NL 00:13:08 0 17
18 1667 ESPAGNET Mathis MBE 18 CABBRUGBY 00:13:13 0 18
19 1638 CAPDAREST Margaux FBE 1 SLA 00:13:22 0 1
20 1671 PAGOTTO Antoine MBE 19 CA CASTETS 00:13:54 0 19
21 1654 FLAMENT Axel MBE 20 """" 00:13:54 0 20
22 1646 AISSAOUI Ella FBE 2 SLA 00:14:00 0 2
23 1655 LABAT Nicolas MBE 21 """" 00:14:13 0 21
24 1651 ROMANI TACH Alois MBE 22 CA CASTETS 00:14:26 0 22
25 1636 BERTRANDE Sarah FBE 3 SLA 00:14:47 0 3
26 1665 EETCKHOUT Elisa FBE 4 """" 00:14:47 0 4
27 1668 BERNARD Nathan MBE 23 SLA 00:15:01 0 23
28 1644 EBBHAH Céleste FBE 5 SLA 00:15:40 0 5
29 1642 TANCREZ Margaux FBE 6 SLA 00:15:41 0 6
30 1647 CATTARIN Cédric MBE 24 SLA 00:15:51 0 24
31 1653 LABUZAN Clémence FBE 7 """" 00:15:56 0 7
32 1639 CASTERA Lisa FBE 8 SLA 00:16:12 0 8
33 1664 ESCUDEY Romane FBE 9 """" 00:16:58 0 9

Aucun commentaires pour le moment, donnez votre avis, vos impressions avant, pendant! et après la course

Déjà membre? Identifiez-vous pour commenter l'épreuve ou créer un compte